createdAt,value
2023-03-02T00:01:41.484Z,23.73
2023-03-02T00:04:12.967Z,23.88
2023-03-02T00:06:39.824Z,24.95
2023-03-02T00:09:07.060Z,24.35
2023-03-02T00:11:37.620Z,23.83
2023-03-02T00:14:05.206Z,24.50
2023-03-02T00:16:32.340Z,23.45
2023-03-02T00:18:59.364Z,23.08
2023-03-02T00:21:26.278Z,22.27
2023-03-02T00:23:53.173Z,26.05
2023-03-02T00:26:20.515Z,25.30
2023-03-02T00:28:47.629Z,27.50
2023-03-02T00:31:14.535Z,25.02
2023-03-02T00:33:41.407Z,25.42
2023-03-02T00:36:18.546Z,26.17
2023-03-02T00:38:45.523Z,25.83
2023-03-02T00:41:14.401Z,24.75
2023-03-02T00:43:41.880Z,28.60
2023-03-02T00:46:15.185Z,25.20
2023-03-02T00:48:42.882Z,25.35
2023-03-02T00:51:10.197Z,25.80
2023-03-02T00:53:38.673Z,22.88
2023-03-02T00:56:06.616Z,24.23
2023-03-02T00:58:37.492Z,25.67
2023-03-02T01:01:11.502Z,24.88
2023-03-02T01:03:42.492Z,27.08
2023-03-02T01:06:16.913Z,24.75
2023-03-02T01:08:44.077Z,26.25
2023-03-02T01:11:20.626Z,25.23
2023-03-02T01:13:49.425Z,23.67
2023-03-02T01:16:16.564Z,26.58
2023-03-02T01:18:43.324Z,23.58
2023-03-02T01:21:14.242Z,26.63
2023-03-02T01:23:41.313Z,26.50
2023-03-02T01:26:08.538Z,26.20
2023-03-02T01:28:35.860Z,25.50
2023-03-02T01:31:04.531Z,23.15
2023-03-02T01:33:32.330Z,27.77
2023-03-02T01:35:59.208Z,24.95
2023-03-02T01:38:26.589Z,29.02
2023-03-02T01:40:53.404Z,23.83
2023-03-02T01:43:20.236Z,27.75
2023-03-02T01:45:54.757Z,24.83
2023-03-02T01:48:49.332Z,24.95
2023-03-02T01:51:25.698Z,27.02
2023-03-02T01:54:04.006Z,25.08
2023-03-02T01:56:37.869Z,25.63
2023-03-02T01:59:10.809Z,28.50
2023-03-02T02:01:42.708Z,25.20
2023-03-02T02:04:10.198Z,23.85
2023-03-02T02:06:51.420Z,25.77
2023-03-02T02:09:21.312Z,25.08
2023-03-02T02:11:48.268Z,23.60
2023-03-02T02:14:15.429Z,24.42
2023-03-02T02:16:42.293Z,24.30
2023-03-02T02:19:21.128Z,25.00
2023-03-02T02:21:47.884Z,23.55
2023-03-02T02:24:42.000Z,27.20
2023-03-02T02:27:09.709Z,24.38
2023-03-02T02:29:45.683Z,25.90
2023-03-02T02:32:22.193Z,25.30
2023-03-02T02:37:32.281Z,25.02
2023-03-02T02:40:02.231Z,24.70
2023-03-02T02:42:37.820Z,23.75
2023-03-02T02:45:18.492Z,26.83
2023-03-02T02:47:45.529Z,25.67
2023-03-02T02:50:23.437Z,25.30
2023-03-02T02:52:59.035Z,24.98
2023-03-02T02:55:27.342Z,24.00
2023-03-02T02:57:58.229Z,27.70
2023-03-02T03:00:26.283Z,25.77
2023-03-02T03:03:29.343Z,25.55
2023-03-02T03:06:02.253Z,24.65
2023-03-02T03:08:44.214Z,24.73
2023-03-02T03:11:23.222Z,25.58
2023-03-02T03:14:27.094Z,25.90
2023-03-02T03:16:54.686Z,24.13
2023-03-02T03:19:30.418Z,25.00
2023-03-02T03:22:01.995Z,26.98
2023-03-02T03:24:35.202Z,26.30
2023-03-02T03:27:05.572Z,23.25
2023-03-02T03:29:37.226Z,24.45
2023-03-02T03:32:07.008Z,22.52
2023-03-02T03:34:40.546Z,24.15
2023-03-02T03:37:17.163Z,24.55
2023-03-02T03:39:44.963Z,23.92
2023-03-02T03:42:12.491Z,25.23
2023-03-02T03:44:39.323Z,22.52
2023-03-02T03:47:06.318Z,23.30
2023-03-02T03:49:33.504Z,24.73
2023-03-02T03:52:00.505Z,25.17
2023-03-02T03:54:27.208Z,27.42
2023-03-02T03:56:53.961Z,26.70
2023-03-02T03:59:24.238Z,27.05
2023-03-02T04:01:59.766Z,24.15
2023-03-02T04:07:03.093Z,23.15
2023-03-02T04:09:32.279Z,25.00
2023-03-02T04:11:59.935Z,25.25
2023-03-02T04:14:27.583Z,24.98
2023-03-02T04:16:55.902Z,24.52
2023-03-02T04:19:25.060Z,26.15
2023-03-02T04:21:55.298Z,26.25
2023-03-02T04:24:24.740Z,25.15
2023-03-02T04:26:54.735Z,26.52
2023-03-02T04:29:21.768Z,23.58
2023-03-02T04:31:48.538Z,25.45
2023-03-02T04:34:16.485Z,27.65
2023-03-02T04:36:45.347Z,27.05
2023-03-02T04:39:17.330Z,27.33
2023-03-02T04:41:48.971Z,27.55
2023-03-02T04:44:17.502Z,24.20
2023-03-02T04:46:45.186Z,24.73
2023-03-02T04:49:14.373Z,25.15
2023-03-02T04:51:45.045Z,22.25
2023-03-02T04:54:23.203Z,24.30
2023-03-02T04:56:51.546Z,22.33
2023-03-02T04:59:27.479Z,23.10
2023-03-02T05:01:58.661Z,23.70
2023-03-02T05:04:29.199Z,24.67
2023-03-02T05:06:57.125Z,27.00
2023-03-02T05:09:30.776Z,24.27
2023-03-02T05:12:00.647Z,22.80
2023-03-02T05:14:28.102Z,22.80
2023-03-02T05:16:54.939Z,25.67
2023-03-02T05:19:21.936Z,26.40
2023-03-02T05:21:49.032Z,24.05
2023-03-02T05:24:16.015Z,26.40
2023-03-02T05:26:42.907Z,25.88
2023-03-02T05:29:10.075Z,25.85
2023-03-02T05:31:44.014Z,25.15
2023-03-02T05:34:13.769Z,25.48
2023-03-02T05:36:40.746Z,26.23
2023-03-02T05:39:09.001Z,26.08
2023-03-02T05:41:37.173Z,21.98
2023-03-02T05:44:09.348Z,23.35
2023-03-02T05:46:37.094Z,24.00
2023-03-02T05:49:04.399Z,24.42
2023-03-02T05:51:31.247Z,26.02
2023-03-02T05:53:58.035Z,24.50
2023-03-02T05:56:25.080Z,21.75
2023-03-02T05:58:51.922Z,22.73
2023-03-02T06:01:19.480Z,21.45
2023-03-02T06:03:46.353Z,24.98
2023-03-02T06:06:15.850Z,23.80
2023-03-02T06:08:44.058Z,22.92
2023-03-02T06:11:12.031Z,23.98
2023-03-02T06:13:39.566Z,23.83
2023-03-02T06:16:07.128Z,22.48
2023-03-02T06:18:34.803Z,24.20
2023-03-02T06:21:01.928Z,26.10
2023-03-02T06:23:29.028Z,23.65
2023-03-02T06:25:55.982Z,24.58
2023-03-02T06:28:22.829Z,23.33
2023-03-02T06:30:49.876Z,25.13
2023-03-02T06:33:18.961Z,24.50
2023-03-02T06:35:46.174Z,23.85
2023-03-02T06:38:13.272Z,23.77
2023-03-02T06:40:40.055Z,23.88
2023-03-02T06:43:06.889Z,21.38
2023-03-02T06:45:34.011Z,25.13
2023-03-02T06:48:01.931Z,24.88
2023-03-02T06:50:28.928Z,27.33
2023-03-02T06:52:56.101Z,25.20
2023-03-02T06:55:23.088Z,28.75
2023-03-02T06:57:50.169Z,24.35
2023-03-02T07:00:25.890Z,24.63
2023-03-02T07:02:55.566Z,24.40
2023-03-02T07:05:24.404Z,25.55
2023-03-02T07:07:51.631Z,24.48
2023-03-02T07:10:18.691Z,24.38
2023-03-02T07:12:45.465Z,24.27
2023-03-02T07:15:14.127Z,26.23
2023-03-02T07:17:43.411Z,24.15
2023-03-02T07:20:12.858Z,25.05
2023-03-02T07:22:40.725Z,24.20
2023-03-02T07:25:09.116Z,24.35
2023-03-02T07:27:36.603Z,22.55
2023-03-02T07:30:06.306Z,24.30
2023-03-02T07:32:33.246Z,22.55
2023-03-02T07:35:00.092Z,26.98
2023-03-02T07:37:26.849Z,27.05
2023-03-02T07:39:53.533Z,23.00
2023-03-02T07:42:20.398Z,25.77
2023-03-02T07:44:54.138Z,25.30
2023-03-02T07:47:21.229Z,24.30
2023-03-02T07:49:48.040Z,25.42
2023-03-02T07:52:15.016Z,25.85
2023-03-02T07:54:41.819Z,23.45
2023-03-02T07:57:08.705Z,22.65
2023-03-02T07:59:35.400Z,23.85
2023-03-02T08:02:02.152Z,23.65
2023-03-02T08:04:28.973Z,23.52
2023-03-02T08:06:55.802Z,25.13
2023-03-02T08:09:22.558Z,24.13
2023-03-02T08:11:49.269Z,24.95
2023-03-02T08:14:15.986Z,23.85
2023-03-02T08:16:42.886Z,23.10
2023-03-02T08:19:10.621Z,21.88
2023-03-02T08:21:37.524Z,23.67
2023-03-02T08:24:04.868Z,22.42
2023-03-02T08:26:32.039Z,24.88
2023-03-02T08:28:59.554Z,20.85
2023-03-02T08:31:27.208Z,26.80
2023-03-02T08:33:54.246Z,23.65
2023-03-02T08:36:21.840Z,26.05
2023-03-02T08:38:49.572Z,25.08
2023-03-02T08:41:22.602Z,24.45
2023-03-02T08:43:49.859Z,23.70
2023-03-02T08:46:19.094Z,23.30
2023-03-02T08:48:46.450Z,23.55
2023-03-02T08:51:20.200Z,26.23
2023-03-02T08:53:50.517Z,24.63
2023-03-02T08:56:21.332Z,25.65
2023-03-02T08:58:49.896Z,25.10
2023-03-02T09:01:24.257Z,25.85
2023-03-02T09:03:51.673Z,26.27
2023-03-02T09:06:18.991Z,26.88
2023-03-02T09:08:45.834Z,24.27
2023-03-02T09:11:12.826Z,24.20
2023-03-02T09:13:40.153Z,23.83
2023-03-02T09:16:08.550Z,24.65
2023-03-02T09:18:36.193Z,23.90
2023-03-02T09:21:03.916Z,23.98
2023-03-02T09:23:31.629Z,22.45
2023-03-02T09:25:58.426Z,20.67
2023-03-02T09:28:25.305Z,21.65
2023-03-02T09:31:02.743Z,23.20
2023-03-02T09:33:31.010Z,21.92
2023-03-02T09:35:57.799Z,23.25
2023-03-02T09:38:25.041Z,23.52
2023-03-02T09:41:12.320Z,22.85
2023-03-02T09:43:49.818Z,25.23
2023-03-02T09:46:18.581Z,23.88
2023-03-02T09:49:06.447Z,24.98
2023-03-02T09:52:00.338Z,22.90
2023-03-02T09:54:27.142Z,25.25
2023-03-02T09:56:59.932Z,22.15
2023-03-02T09:59:31.464Z,24.52
2023-03-02T10:02:06.689Z,24.13
2023-03-02T10:04:47.261Z,22.25
2023-03-02T10:07:22.703Z,24.02
2023-03-02T10:09:49.482Z,24.33
2023-03-02T10:12:54.503Z,25.15
2023-03-02T10:16:02.660Z,26.50
2023-03-02T10:18:51.362Z,23.58
2023-03-02T10:21:47.692Z,23.30
2023-03-02T10:24:38.405Z,25.75
2023-03-02T10:27:35.558Z,22.17
2023-03-02T10:30:27.643Z,24.27
2023-03-02T10:33:00.886Z,22.27
2023-03-02T10:35:29.763Z,22.38
2023-03-02T10:38:16.519Z,22.67
2023-03-02T10:41:00.183Z,21.92
2023-03-02T10:43:43.648Z,23.65
2023-03-02T10:46:12.533Z,23.17
2023-03-02T10:48:49.845Z,24.75
2023-03-02T10:51:34.275Z,25.08
2023-03-02T10:54:13.094Z,25.70
2023-03-02T10:56:44.226Z,22.73
2023-03-02T10:59:26.956Z,22.77
2023-03-02T11:02:13.024Z,24.90
2023-03-02T11:04:40.185Z,24.33
2023-03-02T11:07:17.477Z,25.98
2023-03-02T11:10:07.614Z,24.13
2023-03-02T11:12:37.809Z,25.52
2023-03-02T11:15:04.473Z,24.77
2023-03-02T11:17:35.619Z,25.67
2023-03-02T11:20:04.636Z,22.85
2023-03-02T11:22:44.736Z,23.90
2023-03-02T11:25:34.594Z,24.58
2023-03-02T11:28:51.980Z,25.88
2023-03-02T11:31:45.948Z,24.23
2023-03-02T11:34:41.336Z,25.80
2023-03-02T11:37:46.885Z,26.42
2023-03-02T11:40:23.841Z,24.88
2023-03-02T11:42:51.238Z,23.52
2023-03-02T11:45:24.000Z,24.48
2023-03-02T11:48:24.437Z,23.40
2023-03-02T11:50:58.447Z,23.08
2023-03-02T11:53:33.472Z,23.52
2023-03-02T11:56:00.287Z,21.23
2023-03-02T11:58:29.984Z,24.60
2023-03-02T12:00:57.944Z,24.67
2023-03-02T12:03:40.138Z,22.55
2023-03-02T12:06:22.151Z,23.42
2023-03-02T12:08:52.797Z,22.33
2023-03-02T12:11:19.553Z,22.92
2023-03-02T12:14:28.548Z,21.63
2023-03-02T12:17:22.389Z,22.25
2023-03-02T12:19:53.783Z,23.07
2023-03-02T12:22:31.202Z,25.17
2023-03-02T12:25:28.229Z,20.27
2023-03-02T12:27:55.623Z,22.42
2023-03-02T12:30:27.525Z,21.02
2023-03-02T12:33:22.532Z,21.70
2023-03-02T12:35:50.887Z,22.33
2023-03-02T12:38:34.983Z,23.25
2023-03-02T12:41:39.972Z,24.03
2023-03-02T12:44:27.832Z,22.13
2023-03-02T12:46:56.364Z,23.38
2023-03-02T12:49:50.206Z,23.05
2023-03-02T12:52:36.276Z,22.95
2023-03-02T12:55:09.458Z,23.08
2023-03-02T12:57:52.443Z,20.42
2023-03-02T13:00:26.922Z,22.52
2023-03-02T13:02:56.488Z,21.65
2023-03-02T13:05:30.548Z,24.42
2023-03-02T13:08:05.782Z,20.38
2023-03-02T13:10:48.823Z,18.67
2023-03-02T13:13:34.290Z,24.10
2023-03-02T13:16:05.649Z,22.27
2023-03-02T13:18:37.184Z,21.27
2023-03-02T13:21:05.739Z,24.45
2023-03-02T13:23:34.319Z,24.02
2023-03-02T13:26:05.157Z,23.92
2023-03-02T13:28:34.000Z,22.95
2023-03-02T13:31:18.792Z,21.42
2023-03-02T13:33:48.325Z,20.25
2023-03-02T13:36:34.098Z,23.15
2023-03-02T13:39:02.596Z,20.98
2023-03-02T13:41:35.793Z,19.98
2023-03-02T13:44:19.925Z,20.10
2023-03-02T13:46:47.725Z,19.65
2023-03-02T13:49:27.523Z,20.70
2023-03-02T13:52:14.100Z,20.25
2023-03-02T13:54:44.571Z,21.45
2023-03-02T13:57:19.058Z,19.25
2023-03-02T13:59:45.950Z,18.58
2023-03-02T14:02:27.165Z,20.00
2023-03-02T14:04:54.732Z,20.38
2023-03-02T14:07:21.611Z,25.08
2023-03-02T14:09:48.892Z,23.10
2023-03-02T14:12:32.939Z,21.05
2023-03-02T14:15:03.939Z,22.42
2023-03-02T14:17:30.851Z,24.67
2023-03-02T14:19:57.655Z,21.67
2023-03-02T14:22:27.128Z,22.88
2023-03-02T14:24:53.867Z,22.55
2023-03-02T14:27:21.205Z,21.90
2023-03-02T14:29:48.184Z,19.10
2023-03-02T14:32:15.756Z,23.58
2023-03-02T14:34:43.549Z,22.35
2023-03-02T14:37:19.628Z,23.52
2023-03-02T14:39:53.422Z,19.83
2023-03-02T14:42:22.600Z,21.08
2023-03-02T14:44:51.199Z,24.58
2023-03-02T14:47:19.527Z,21.95
2023-03-02T14:49:46.733Z,20.60
2023-03-02T14:52:20.282Z,21.08
2023-03-02T14:54:55.723Z,22.20
2023-03-02T14:57:30.007Z,19.75
2023-03-02T14:59:59.756Z,18.20
2023-03-02T15:02:27.286Z,19.88
2023-03-02T15:04:57.259Z,20.83
2023-03-02T15:07:27.531Z,22.67
2023-03-02T15:09:56.460Z,19.67
2023-03-02T15:12:23.732Z,20.00
2023-03-02T15:14:50.740Z,20.73
2023-03-02T15:17:18.058Z,19.45
2023-03-02T15:19:44.887Z,20.23
2023-03-02T15:22:13.431Z,18.83
2023-03-02T15:24:40.351Z,22.60
2023-03-02T15:27:07.163Z,20.73
2023-03-02T15:29:34.117Z,23.48
2023-03-02T15:32:00.992Z,21.42
2023-03-02T15:34:27.769Z,21.00
2023-03-02T15:36:54.645Z,18.65
2023-03-02T15:39:21.549Z,20.88
2023-03-02T15:41:48.501Z,17.70
2023-03-02T15:44:22.420Z,20.80
2023-03-02T15:46:53.599Z,20.15
2023-03-02T15:49:23.042Z,21.05
2023-03-02T15:51:55.087Z,17.83
2023-03-02T15:54:25.837Z,21.17
2023-03-02T15:56:53.460Z,18.98
2023-03-02T15:59:22.959Z,20.13
2023-03-02T16:01:49.907Z,20.90
2023-03-02T16:04:16.866Z,22.15
2023-03-02T16:06:44.215Z,20.00
2023-03-02T16:09:11.499Z,26.05
2023-03-02T16:11:38.341Z,19.60
2023-03-02T16:14:05.953Z,22.38
2023-03-02T16:16:32.964Z,19.02
2023-03-02T16:18:59.803Z,22.77
2023-03-02T16:21:33.693Z,24.88
2023-03-02T16:24:03.971Z,22.40
2023-03-02T16:26:35.418Z,21.40
2023-03-02T16:29:04.211Z,20.77
2023-03-02T16:31:33.218Z,22.35
2023-03-02T16:34:03.754Z,21.50
2023-03-02T16:36:30.712Z,19.80
2023-03-02T16:38:57.514Z,20.38
2023-03-02T16:41:24.526Z,21.75
2023-03-02T16:43:55.052Z,22.05
2023-03-02T16:46:25.603Z,21.95
2023-03-02T16:48:53.416Z,23.05
2023-03-02T16:51:22.003Z,23.20
2023-03-02T16:53:49.792Z,21.48
2023-03-02T16:56:16.958Z,23.80
2023-03-02T16:58:44.260Z,20.95
2023-03-02T17:01:22.676Z,22.73
2023-03-02T17:03:51.065Z,22.13
2023-03-02T17:06:22.351Z,23.90
2023-03-02T17:08:50.703Z,23.67
2023-03-02T17:11:18.248Z,22.52
2023-03-02T17:13:45.297Z,23.73
2023-03-02T17:16:12.999Z,21.77
2023-03-02T17:18:41.107Z,21.45
2023-03-02T17:21:08.635Z,24.42
2023-03-02T17:23:37.030Z,24.15
2023-03-02T17:26:04.672Z,23.00
2023-03-02T17:28:31.779Z,24.35
2023-03-02T17:31:00.409Z,26.85
2023-03-02T17:33:27.684Z,25.60
2023-03-02T17:35:54.399Z,25.70
2023-03-02T17:38:21.301Z,24.15
2023-03-02T17:40:51.248Z,23.40
2023-03-02T17:43:18.310Z,22.85
2023-03-02T17:45:48.126Z,22.85
2023-03-02T17:48:15.022Z,24.00
2023-03-02T17:50:41.910Z,24.58
2023-03-02T17:53:09.530Z,24.60
2023-03-02T17:55:36.485Z,23.42
2023-03-02T17:58:03.471Z,22.92
2023-03-02T18:00:30.783Z,23.33
2023-03-02T18:02:57.501Z,25.35
2023-03-02T18:05:25.661Z,24.55
2023-03-02T18:07:54.476Z,25.20
2023-03-02T18:10:21.301Z,28.77
2023-03-02T18:12:48.736Z,25.17
2023-03-02T18:15:15.757Z,26.33
2023-03-02T18:17:42.613Z,24.15
2023-03-02T18:20:10.578Z,26.38
2023-03-02T18:22:37.339Z,26.88
2023-03-02T18:25:04.661Z,26.13
2023-03-02T18:27:31.556Z,26.35
2023-03-02T18:29:58.386Z,27.08
2023-03-02T18:32:25.211Z,27.65
2023-03-02T18:34:51.977Z,27.45
2023-03-02T18:37:19.120Z,26.77
2023-03-02T18:39:45.817Z,23.00
2023-03-02T18:42:12.886Z,25.27
2023-03-02T18:44:39.929Z,26.38
2023-03-02T18:47:07.562Z,26.98
2023-03-02T18:49:34.630Z,28.90
2023-03-02T18:52:05.687Z,26.88
2023-03-02T18:54:32.667Z,26.60
2023-03-02T18:57:01.524Z,25.42
2023-03-02T18:59:29.303Z,26.75
2023-03-02T19:01:57.283Z,26.58
2023-03-02T19:04:26.581Z,27.70
2023-03-02T19:06:56.097Z,24.80
2023-03-02T19:09:23.690Z,27.70
2023-03-02T19:11:50.633Z,29.23
2023-03-02T19:14:17.582Z,27.10
2023-03-02T19:16:45.123Z,25.58
2023-03-02T19:19:12.227Z,27.52
2023-03-02T19:21:39.394Z,27.85
2023-03-02T19:24:06.956Z,27.15
2023-03-02T19:26:34.048Z,28.25
2023-03-02T19:29:00.999Z,28.85
2023-03-02T19:31:31.281Z,27.80
2023-03-02T19:33:58.082Z,27.63
2023-03-02T19:36:25.539Z,29.10
2023-03-02T19:38:52.410Z,27.85
2023-03-02T19:41:20.629Z,32.50
2023-03-02T19:43:47.837Z,27.20
2023-03-02T19:46:16.764Z,30.77
2023-03-02T19:48:43.691Z,27.55
2023-03-02T19:51:12.064Z,31.23
2023-03-02T19:53:40.278Z,26.77
2023-03-02T19:56:12.857Z,31.27
2023-03-02T19:58:48.028Z,30.48
2023-03-02T20:01:21.462Z,29.98
2023-03-02T20:03:53.604Z,29.30
2023-03-02T20:06:25.101Z,29.77
2023-03-02T20:08:52.640Z,28.05
2023-03-02T20:11:19.467Z,29.58
2023-03-02T20:13:46.478Z,27.40
2023-03-02T20:16:14.387Z,28.00
2023-03-02T20:18:41.448Z,28.75
2023-03-02T20:21:08.630Z,29.45
2023-03-02T20:23:35.423Z,27.02
2023-03-02T20:26:03.646Z,28.75
2023-03-02T20:28:32.993Z,30.67
2023-03-02T20:31:08.866Z,28.15
2023-03-02T20:33:42.224Z,28.85
2023-03-02T20:36:09.792Z,28.58
2023-03-02T20:38:55.807Z,30.83
2023-03-02T20:41:23.510Z,30.83
2023-03-02T20:43:50.599Z,28.00
2023-03-02T20:46:25.752Z,26.15
2023-03-02T20:48:52.882Z,25.60
2023-03-02T20:51:21.361Z,25.42
2023-03-02T20:53:48.434Z,24.92
2023-03-02T20:56:18.231Z,25.40
2023-03-02T20:58:46.766Z,26.15
2023-03-02T21:01:15.999Z,31.15
2023-03-02T21:03:43.572Z,30.42
2023-03-02T21:06:12.937Z,30.67
2023-03-02T21:08:42.042Z,28.77
2023-03-02T21:11:13.534Z,32.20
2023-03-02T21:13:40.493Z,31.95
2023-03-02T21:16:09.490Z,33.60
2023-03-02T21:18:36.408Z,30.85
2023-03-02T21:21:03.322Z,33.80
2023-03-02T21:23:30.149Z,34.20
2023-03-02T21:25:57.406Z,32.97
2023-03-02T21:28:24.216Z,34.00
2023-03-02T21:30:51.081Z,31.10
2023-03-02T21:33:17.934Z,34.55
2023-03-02T21:35:46.322Z,33.95
2023-03-02T21:38:13.235Z,36.65
2023-03-02T21:40:45.848Z,34.25
2023-03-02T21:43:14.704Z,35.75
2023-03-02T21:45:41.754Z,32.58
2023-03-02T21:48:08.912Z,32.35
2023-03-02T21:50:38.485Z,35.60
2023-03-02T21:53:06.877Z,33.20
2023-03-02T21:55:34.536Z,33.00
2023-03-02T21:58:02.079Z,34.30
2023-03-02T22:00:36.319Z,34.35
2023-03-02T22:03:04.365Z,34.53
2023-03-02T22:05:32.740Z,34.75
2023-03-02T22:07:59.890Z,36.90
2023-03-02T22:10:31.246Z,36.97
2023-03-02T22:13:26.756Z,35.38
2023-03-02T22:16:13.726Z,31.13
2023-03-02T22:18:41.518Z,32.85
2023-03-02T22:21:37.775Z,35.08
2023-03-02T22:24:11.118Z,36.15
2023-03-02T22:27:25.230Z,35.40
2023-03-02T22:29:55.237Z,35.25
2023-03-02T22:32:27.200Z,36.83
2023-03-02T22:34:57.009Z,38.95
2023-03-02T22:37:30.283Z,38.05
2023-03-02T22:40:02.687Z,36.85
2023-03-02T22:42:30.752Z,37.63
2023-03-02T22:45:17.737Z,39.42
2023-03-02T22:47:49.094Z,37.72
2023-03-02T22:50:23.520Z,38.17
2023-03-02T22:52:51.662Z,36.67
2023-03-02T22:55:39.177Z,35.67
2023-03-02T22:58:51.403Z,33.85
2023-03-02T23:01:47.869Z,39.38
2023-03-02T23:04:19.818Z,39.78
2023-03-02T23:06:53.747Z,39.42
2023-03-02T23:09:33.698Z,39.72
2023-03-02T23:12:13.883Z,36.20
2023-03-02T23:15:00.862Z,38.45
2023-03-02T23:17:38.651Z,38.38
2023-03-02T23:20:11.927Z,38.63
2023-03-02T23:22:39.170Z,39.70
2023-03-02T23:25:09.720Z,42.45
2023-03-02T23:27:36.575Z,38.85
2023-03-02T23:30:04.659Z,41.03
2023-03-02T23:32:31.424Z,35.67
2023-03-02T23:34:58.223Z,38.92
2023-03-02T23:37:24.949Z,37.03
2023-03-02T23:39:52.396Z,39.03
2023-03-02T23:42:19.076Z,38.38
2023-03-02T23:44:49.022Z,37.72
2023-03-02T23:47:15.734Z,40.58
2023-03-02T23:49:42.531Z,39.03
2023-03-02T23:52:09.252Z,39.33
2023-03-02T23:54:36.052Z,42.08
2023-03-02T23:57:03.056Z,39.20
2023-03-02T23:59:29.917Z,40.35
